Time;durP1;ratioP1;P1;durP2;ratioP2;P2;SDS_P1;SDS_P2;PMS_P1;PMS_P2;Temp;Humidity;BMP_temperature;BMP_pressure;BME280_temperature;BME280_humidity;BME280_pressure;Samples;Min_cycle;Max_cycle;Signal;HPM_P1;HPM_P2
2022/08/07 00:01:18;;;;;;;8.77;6.55;;;;;;;19.65;84.93;92938.88;5089004;28;20086;-79
2022/08/07 00:03:45;;;;;;;8.07;6.57;;;;;;;19.61;84.61;92929.03;5089359;28;20051;-78
2022/08/07 00:06:12;;;;;;;9.85;7.10;;;;;;;19.63;84.31;92929.53;5089073;28;20549;-78
2022/08/07 00:08:39;;;;;;;10.93;7.30;;;;;;;19.59;84.97;92922.53;5089485;28;20047;-78
2022/08/07 00:11:06;;;;;;;8.45;6.80;;;;;;;19.59;84.51;92925.91;5088931;28;20047;-79
2022/08/07 00:13:36;;;;;;;8.88;6.82;;;;;;;19.57;84.88;92925.41;5106713;28;20553;-78
2022/08/07 00:16:04;;;;;;;7.80;7.00;;;;;;;19.47;84.85;92928.09;5106266;28;20043;-78
2022/08/07 00:18:31;;;;;;;7.93;6.70;;;;;;;19.32;85.83;92914.13;5094816;28;20051;-78
2022/08/07 00:21:01;;;;;;;8.52;7.03;;;;;;;19.42;86.19;92931.50;5096228;28;20048;-79
2022/08/07 00:23:37;;;;;;;9.80;7.13;;;;;;;19.36;86.10;92938.56;5095310;28;20048;-80
2022/08/07 00:26:10;;;;;;;9.15;6.72;;;;;;;19.25;86.77;92929.28;5095246;28;20055;-80
2022/08/07 00:28:39;;;;;;;9.20;7.15;;;;;;;19.26;87.13;92938.66;5095729;28;20075;-79
2022/08/07 00:31:09;;;;;;;10.43;7.40;;;;;;;19.13;88.00;92934.81;5090033;28;20048;-79
2022/08/07 00:33:36;;;;;;;7.75;6.82;;;;;;;19.11;87.73;92938.75;5098042;28;20050;-79
2022/08/07 00:36:05;;;;;;;9.80;6.93;;;;;;;19.08;88.24;92934.84;5108594;28;20097;-79
2022/08/07 00:38:32;;;;;;;8.60;6.57;;;;;;;19.00;88.31;92930.16;5110063;28;20104;-78
2022/08/07 00:41:00;;;;;;;10.18;7.40;;;;;;;19.08;88.78;92934.84;5110083;28;20047;-79
2022/08/07 00:43:27;;;;;;;8.80;7.32;;;;;;;19.11;88.63;92936.91;5109591;28;20063;-79
2022/08/07 00:45:55;;;;;;;7.68;6.75;;;;;;;19.12;88.73;92945.50;5096058;28;20407;-79
2022/08/07 00:48:22;;;;;;;7.55;6.72;;;;;;;19.12;88.18;92935.84;5088796;28;20459;-79
2022/08/07 00:50:49;;;;;;;9.20;6.75;;;;;;;19.22;86.89;92942.84;5089240;28;20048;-79
2022/08/07 00:53:15;;;;;;;9.93;7.00;;;;;;;19.23;87.56;92939.97;5088743;28;20044;-79
2022/08/07 00:55:43;;;;;;;9.05;6.57;;;;;;;19.25;87.79;92937.06;5089061;28;20040;-78
2022/08/07 00:58:09;;;;;;;9.55;6.60;;;;;;;19.26;87.88;92937.88;5106477;28;20491;-79
2022/08/07 01:00:36;;;;;;;8.88;6.97;;;;;;;19.16;87.37;92931.66;5109321;28;20089;-80
2022/08/07 01:03:07;;;;;;;8.20;6.78;;;;;;;19.21;87.06;92933.47;5109169;28;20052;-80
2022/08/07 01:05:35;;;;;;;8.95;6.63;;;;;;;19.23;87.86;92939.19;5109382;28;20051;-79
2022/08/07 01:08:02;;;;;;;8.85;6.65;;;;;;;19.23;87.81;92949.59;5109520;28;20036;-79
2022/08/07 01:10:29;;;;;;;8.65;6.47;;;;;;;18.96;89.41;92928.13;5109220;28;20095;-79
2022/08/07 01:12:55;;;;;;;7.20;5.90;;;;;;;19.03;90.39;92945.25;5109024;28;20036;-79
2022/08/07 01:15:24;;;;;;;10.15;6.65;;;;;;;18.70;89.22;92911.84;5109249;28;20048;-79
2022/08/07 01:17:51;;;;;;;8.88;7.10;;;;;;;19.01;89.24;92947.34;5109818;28;20151;-79
2022/08/07 01:20:27;;;;;;;8.00;6.85;;;;;;;19.02;89.43;92952.28;5093422;28;20060;-79
2022/08/07 01:22:55;;;;;;;9.80;7.22;;;;;;;18.99;89.94;92945.03;5089367;28;20040;-79
2022/08/07 01:25:22;;;;;;;8.48;6.50;;;;;;;18.96;90.35;92935.94;5088854;28;20167;-79
2022/08/07 01:27:51;;;;;;;7.85;6.22;;;;;;;18.94;89.64;92939.84;5089379;28;20438;-79
2022/08/07 01:30:18;;;;;;;8.73;6.72;;;;;;;18.81;89.78;92918.56;5089539;28;20048;-78
2022/08/07 01:32:45;;;;;;;8.70;6.78;;;;;;;18.92;90.13;92940.09;5095001;28;20059;-78
2022/08/07 01:35:12;;;;;;;8.10;6.05;;;;;;;18.88;90.36;92933.13;5109534;28;20445;-78
2022/08/07 01:37:39;;;;;;;8.02;6.75;;;;;;;18.69;91.48;92925.91;5090401;28;20545;-79
2022/08/07 01:40:09;;;;;;;7.53;6.53;;;;;;;18.73;91.97;92939.13;5088659;28;20044;-78
2022/08/07 01:42:36;;;;;;;8.90;6.63;;;;;;;18.67;93.16;92930.59;5090191;28;20044;-78
2022/08/07 01:45:05;;;;;;;9.10;6.75;;;;;;;18.62;93.65;92938.41;5106660;28;20492;-78
2022/08/07 01:47:32;;;;;;;9.43;6.55;;;;;;;18.55;95.10;92938.69;5092600;28;20518;-78
2022/08/07 01:49:58;;;;;;;9.60;7.45;;;;;;;18.51;94.26;92943.66;5092236;28;20098;-78
2022/08/07 01:52:28;;;;;;;7.47;6.68;;;;;;;18.51;94.43;92941.06;5092516;28;20051;-78
2022/08/07 01:54:56;;;;;;;8.00;6.35;;;;;;;18.51;94.21;92946.25;5092265;28;20048;-78
2022/08/07 01:57:28;;;;;;;8.35;6.63;;;;;;;18.52;94.25;92934.03;5092602;28;20052;-78
2022/08/07 02:00:00;;;;;;;8.57;7.22;;;;;;;18.56;93.44;92943.63;5092032;28;20090;-79
2022/08/07 02:02:33;;;;;;;7.28;6.18;;;;;;;18.38;93.89;92918.22;5092516;28;20052;-80
2022/08/07 02:05:05;;;;;;;7.30;6.57;;;;;;;18.69;94.23;92957.09;5092890;28;20376;-79
2022/08/07 02:07:36;;;;;;;8.13;6.97;;;;;;;18.62;95.29;92943.63;5092596;28;20101;-79
2022/08/07 02:10:05;;;;;;;8.52;6.65;;;;;;;18.71;95.41;92957.66;5091935;28;20505;-79
2022/08/07 02:12:38;;;;;;;8.55;7.00;;;;;;;18.75;95.91;92963.09;5092269;28;20389;-79
2022/08/07 02:15:07;;;;;;;11.50;7.03;;;;;;;18.51;100.00;92974.88;5091824;28;20044;-79
2022/08/07 02:17:34;;;;;;;8.23;6.38;;;;;;;18.04;100.00;92992.34;5091884;28;20043;-79
2022/08/07 02:20:03;;;;;;;8.52;7.45;;;;;;;17.76;100.00;92964.03;5092021;28;20048;-79
2022/08/07 02:22:31;;;;;;;8.90;7.22;;;;;;;18.15;100.00;93004.31;5092115;28;20044;-79
2022/08/07 02:24:59;;;;;;;10.50;6.50;;;;;;;18.25;100.00;93000.94;5092295;28;20416;-80
2022/08/07 02:27:28;;;;;;;9.20;6.47;;;;;;;18.47;100.00;93002.44;5091501;28;20048;-81
2022/08/07 02:29:59;;;;;;;7.80;6.05;;;;;;;18.61;99.58;92997.47;5091628;28;20521;-83
2022/08/07 02:32:27;;;;;;;7.32;6.28;;;;;;;18.74;100.00;92987.56;5091792;28;20048;-80
2022/08/07 02:34:56;;;;;;;8.77;7.13;;;;;;;18.78;100.00;92994.56;5091370;28;20048;-80
2022/08/07 02:37:24;;;;;;;13.55;7.47;;;;;;;19.26;100.00;93006.34;5091524;28;20139;-81
2022/08/07 02:39:53;;;;;;;11.52;6.63;;;;;;;19.36;100.00;92987.28;5091801;28;20052;-81
2022/08/07 02:42:20;;;;;;;9.65;6.55;;;;;;;19.40;100.00;92996.13;5091682;28;20446;-81
2022/08/07 02:44:50;;;;;;;8.68;6.18;;;;;;;19.37;100.00;92965.41;5105451;28;20487;-81
2022/08/07 02:47:19;;;;;;;9.38;7.10;;;;;;;19.49;100.00;92971.03;5091547;28;20089;-81
2022/08/07 02:49:45;;;;;;;9.55;6.68;;;;;;;19.60;100.00;92963.16;5090920;28;20812;-81
2022/08/07 02:52:18;;;;;;;7.65;6.35;;;;;;;19.57;100.00;92928.00;5091483;28;20049;-80
2022/08/07 02:54:48;;;;;;;8.75;6.40;;;;;;;19.84;100.00;92939.00;5091133;28;20093;-81
2022/08/07 02:57:18;;;;;;;9.55;6.55;;;;;;;19.95;100.00;92927.41;5091307;28;20488;-81
2022/08/07 02:59:49;;;;;;;8.07;6.53;;;;;;;19.97;100.00;92908.94;5091048;28;20124;-82
2022/08/07 03:02:17;;;;;;;7.90;6.28;;;;;;;19.95;100.00;92906.56;5091289;28;20123;-82
2022/08/07 03:04:46;;;;;;;8.70;5.95;;;;;;;20.13;99.86;92918.16;5091391;28;20052;-82
2022/08/07 03:07:13;;;;;;;7.90;6.18;;;;;;;20.18;100.00;92927.75;5091267;28;20040;-85
2022/08/07 03:09:41;;;;;;;10.40;6.82;;;;;;;19.73;100.00;92935.72;5091077;28;20156;-88
2022/08/07 03:12:10;;;;;;;8.80;7.18;;;;;;;19.55;100.00;92939.75;5090950;28;20044;-81
2022/08/07 03:14:38;;;;;;;8.70;6.63;;;;;;;19.44;100.00;92939.81;5091176;28;20109;-80
2022/08/07 03:17:05;;;;;;;8.57;6.53;;;;;;;19.34;100.00;92919.06;5090786;28;20051;-81
2022/08/07 03:19:35;;;;;;;10.27;6.50;;;;;;;19.59;100.00;92931.09;5090611;28;20048;-80
2022/08/07 03:22:03;;;;;;;8.95;5.90;;;;;;;19.63;100.00;92906.06;5090711;28;20056;-79
2022/08/07 03:24:30;;;;;;;6.32;5.63;;;;;;;19.78;100.00;92938.28;5090982;28;20457;-79
2022/08/07 03:27:01;;;;;;;9.15;6.55;;;;;;;19.76;100.00;92924.72;5090639;28;20044;-79
2022/08/07 03:29:32;;;;;;;11.10;6.70;;;;;;;19.88;100.00;92922.56;5090924;28;20097;-79
2022/08/07 03:32:00;;;;;;;11.00;6.30;;;;;;;20.09;100.00;92932.03;5090337;28;20043;-79
2022/08/07 03:34:27;;;;;;;9.77;5.72;;;;;;;20.16;100.00;92933.25;5090707;28;20040;-84
2022/08/07 03:36:57;;;;;;;7.90;5.38;;;;;;;20.23;100.00;92935.53;5091308;28;20063;-80
2022/08/07 03:39:25;;;;;;;7.20;4.82;;;;;;;20.32;100.00;92940.16;5090749;28;20048;-81
2022/08/07 03:41:52;;;;;;;5.45;4.38;;;;;;;20.39;100.00;92936.16;5090967;28;20109;-79
2022/08/07 03:44:19;;;;;;;6.13;4.28;;;;;;;20.33;95.74;92905.97;5102021;28;20044;-81
2022/08/07 03:46:46;;;;;;;5.70;4.43;;;;;;;20.63;98.40;92934.59;5092530;28;20048;-82
2022/08/07 03:49:14;;;;;;;6.28;4.38;;;;;;;20.58;98.39;92927.59;5090531;28;20135;-81
2022/08/07 03:51:42;;;;;;;6.38;4.85;;;;;;;20.64;99.60;92939.53;5090198;28;20093;-83
2022/08/07 03:54:10;;;;;;;5.75;4.47;;;;;;;20.63;99.96;92937.19;5090275;28;20474;-82
2022/08/07 03:56:40;;;;;;;6.15;4.57;;;;;;;20.61;100.00;92932.28;5089774;28;20123;-81
2022/08/07 03:59:07;;;;;;;5.90;4.80;;;;;;;20.69;99.79;92941.31;5090215;28;20381;-84
2022/08/07 04:01:40;;;;;;;9.88;5.07;;;;;;;20.78;96.94;92931.03;5089955;28;20511;-80
2022/08/07 04:04:07;;;;;;;8.32;5.80;;;;;;;20.80;100.00;92941.97;5089826;28;20071;-81
2022/08/07 04:06:34;;;;;;;7.18;4.95;;;;;;;20.90;98.48;92949.69;5089573;28;20044;-81
2022/08/07 04:09:01;;;;;;;6.63;5.45;;;;;;;20.78;100.00;92949.31;5089832;28;20501;-79
2022/08/07 04:11:30;;;;;;;10.02;5.60;;;;;;;20.78;97.85;92944.84;5089930;28;20428;-79
2022/08/07 04:13:59;;;;;;;8.43;5.57;;;;;;;20.80;99.44;92960.22;5089992;28;20499;-79
2022/08/07 04:16:27;;;;;;;9.35;5.82;;;;;;;20.65;100.00;92961.94;5088676;28;20519;-79
2022/08/07 04:18:54;;;;;;;8.75;5.55;;;;;;;20.69;100.00;92962.97;5096107;28;20109;-82
2022/08/07 04:21:21;;;;;;;6.63;4.95;;;;;;;20.67;100.00;92956.47;5095488;28;20449;-82
2022/08/07 04:23:48;;;;;;;7.03;4.80;;;;;;;20.67;100.00;92956.47;5094251;28;20036;-79
2022/08/07 04:26:16;;;;;;;5.70;4.18;;;;;;;20.79;99.01;92964.66;5097036;28;20050;-79
2022/08/07 04:28:44;;;;;;;8.93;4.93;;;;;;;20.82;99.34;92955.50;5089831;28;20052;-81
2022/08/07 04:31:11;;;;;;;7.63;5.22;;;;;;;21.08;96.90;92966.44;5089472;28;20549;-80
2022/08/07 04:33:39;;;;;;;5.70;4.30;;;;;;;21.10;97.58;92966.13;5094102;28;20035;-80
2022/08/07 04:36:08;;;;;;;6.20;3.53;;;;;;;20.97;97.37;92962.41;5100902;28;20101;-80
2022/08/07 04:38:36;;;;;;;5.55;3.95;;;;;;;21.12;97.13;92971.09;5089674;28;20079;-78
2022/08/07 04:41:04;;;;;;;5.60;4.07;;;;;;;21.17;98.62;92981.47;5089196;28;20503;-78
2022/08/07 04:43:35;;;;;;;6.95;3.92;;;;;;;21.09;95.08;92952.31;5089464;28;20548;-78
2022/08/07 04:46:08;;;;;;;5.95;3.83;;;;;;;21.43;94.91;92988.97;5089352;28;20487;-78
2022/08/07 04:48:45;;;;;;;5.55;4.45;;;;;;;21.57;95.31;92978.59;5089361;28;20089;-80
2022/08/07 04:51:21;;;;;;;6.70;4.35;;;;;;;21.67;98.12;92986.28;5097905;28;20047;-79
2022/08/07 04:53:56;;;;;;;4.63;3.65;;;;;;;21.74;98.06;92989.31;5089746;28;20044;-79
2022/08/07 04:56:29;;;;;;;6.93;4.43;;;;;;;21.84;92.37;92988.38;5089357;28;20105;-78
2022/08/07 04:59:01;;;;;;;8.32;4.88;;;;;;;22.00;92.08;92990.78;5089198;28;20040;-78
2022/08/07 05:01:39;;;;;;;7.30;5.55;;;;;;;21.86;92.71;92967.94;5089540;28;20446;-79
2022/08/07 05:04:10;;;;;;;6.60;4.97;;;;;;;22.15;88.79;92990.53;5089433;28;20117;-80
2022/08/07 05:06:44;;;;;;;9.45;5.10;;;;;;;22.24;90.99;92990.63;5089052;28;20059;-79
2022/08/07 05:09:22;;;;;;;6.47;5.47;;;;;;;22.25;92.87;92986.16;5089333;28;20052;-79
2022/08/07 05:11:52;;;;;;;8.05;6.10;;;;;;;22.29;91.67;92985.31;5091151;28;20044;-79
2022/08/07 05:14:22;;;;;;;8.15;5.35;;;;;;;22.40;90.33;92998.97;5089166;28;20044;-79
2022/08/07 05:16:53;;;;;;;8.73;5.47;;;;;;;22.48;90.64;92994.13;5089094;28;20047;-79
2022/08/07 05:19:22;;;;;;;11.88;5.75;;;;;;;22.49;94.61;93006.94;5092895;28;20085;-79
2022/08/07 05:21:52;;;;;;;8.73;5.35;;;;;;;22.47;90.81;93005.69;5097655;28;20487;-80
2022/08/07 05:24:20;;;;;;;8.25;5.00;;;;;;;22.55;92.00;93005.06;5094827;28;20048;-80
2022/08/07 05:26:51;;;;;;;5.25;4.32;;;;;;;22.55;89.09;92991.97;5092695;28;20048;-82
2022/08/07 05:29:20;;;;;;;5.85;3.85;;;;;;;22.67;90.32;93005.34;5092521;28;20043;-81
2022/08/07 05:31:49;;;;;;;4.53;3.63;;;;;;;22.65;89.61;92988.38;5092602;28;20040;-81
2022/08/07 05:34:18;;;;;;;6.38;3.90;;;;;;;22.78;88.92;93003.28;5092777;28;20044;-81
2022/08/07 05:36:48;;;;;;;7.57;3.90;;;;;;;22.97;89.51;93005.06;5092501;28;20045;-80
2022/08/07 05:39:17;;;;;;;5.35;3.88;;;;;;;23.04;86.79;93000.19;5092637;28;20040;-80
2022/08/07 05:41:46;;;;;;;5.50;3.95;;;;;;;23.27;87.44;92996.88;5092425;28;20442;-82
2022/08/07 05:44:13;;;;;;;5.80;3.75;;;;;;;23.29;86.08;93010.44;5103106;28;20151;-81
2022/08/07 05:46:41;;;;;;;5.85;4.38;;;;;;;23.23;85.72;93000.06;5095735;28;20089;-82
2022/08/07 05:49:10;;;;;;;7.00;4.28;;;;;;;23.46;85.60;93015.88;5092433;28;20548;-81
2022/08/07 05:51:38;;;;;;;6.55;4.22;;;;;;;23.65;83.98;93022.03;5092412;28;20040;-85
2022/08/07 05:54:05;;;;;;;6.55;4.10;;;;;;;23.70;83.57;93024.53;5092204;28;20118;-85
2022/08/07 05:56:34;;;;;;;5.60;3.88;;;;;;;23.89;81.54;93024.38;5092065;28;20040;-83
2022/08/07 05:59:03;;;;;;;6.07;4.10;;;;;;;24.18;81.40;93032.91;5091650;28;20560;-83
2022/08/07 06:01:32;;;;;;;8.35;4.28;;;;;;;24.39;80.30;93041.09;5091991;28;20588;-86
2022/08/07 06:04:01;;;;;;;6.88;4.32;;;;;;;24.59;73.04;93037.16;5091886;28;20040;-83
2022/08/07 06:06:28;;;;;;;5.70;3.95;;;;;;;24.29;72.22;93036.84;5092240;28;20103;-81
2022/08/07 06:08:57;;;;;;;6.72;3.95;;;;;;;23.97;73.44;93049.88;5091705;28;20529;-84
2022/08/07 06:11:24;;;;;;;6.38;4.07;;;;;;;24.13;74.39;93045.09;5094473;28;20564;-85
2022/08/07 06:13:51;;;;;;;6.72;4.60;;;;;;;23.69;74.89;93015.13;5109289;28;20380;-85
2022/08/07 06:16:20;;;;;;;6.10;4.63;;;;;;;24.39;75.71;93051.59;5095210;28;20407;-86
2022/08/07 06:18:47;;;;;;;5.05;4.38;;;;;;;24.65;71.34;93054.34;5105900;28;20442;-84
2022/08/07 06:21:15;;;;;;;5.90;4.20;;;;;;;24.39;69.37;93062.84;5091423;28;20043;-85
2022/08/07 06:23:43;;;;;;;4.88;3.80;;;;;;;24.32;73.44;93065.13;5091579;28;20093;-83
2022/08/07 06:26:14;;;;;;;6.55;4.72;;;;;;;24.40;73.21;93067.00;5096434;28;20082;-83
2022/08/07 06:28:51;;;;;;;7.03;4.32;;;;;;;24.23;72.18;93057.19;5091260;28;20040;-82
2022/08/07 06:31:18;;;;;;;6.30;4.30;;;;;;;24.33;72.40;93061.41;5091673;28;20059;-83
2022/08/07 06:33:46;;;;;;;10.07;4.30;;;;;;;24.79;72.02;93064.75;5091300;28;20044;-83
2022/08/07 06:36:13;;;;;;;5.68;4.40;;;;;;;24.92;69.58;93057.88;5090986;28;20592;-84
2022/08/07 06:38:41;;;;;;;5.47;3.75;;;;;;;24.50;71.06;93050.25;5091333;28;20044;-85
2022/08/07 06:41:12;;;;;;;6.35;4.25;;;;;;;24.78;70.11;93050.06;5090941;28;20121;-83
2022/08/07 06:43:43;;;;;;;5.70;4.03;;;;;;;24.60;70.45;93049.22;5096966;28;20069;-84
2022/08/07 06:46:10;;;;;;;6.72;4.70;;;;;;;24.37;72.54;93067.63;5098852;28;20044;-83
2022/08/07 06:48:38;;;;;;;6.63;4.95;;;;;;;24.77;72.04;93066.88;5090846;28;20040;-85
2022/08/07 06:51:09;;;;;;;6.95;5.10;;;;;;;24.74;72.26;93059.63;5090943;28;20066;-80
2022/08/07 06:53:39;;;;;;;5.63;4.28;;;;;;;24.97;73.71;93064.06;5090973;28;20093;-82
2022/08/07 06:56:09;;;;;;;8.15;5.47;;;;;;;24.63;73.18;93051.22;5091168;28;20113;-82
2022/08/07 06:58:36;;;;;;;6.53;4.82;;;;;;;24.48;74.89;93055.00;5090685;28;20044;-82
2022/08/07 07:01:08;;;;;;;6.95;4.88;;;;;;;24.87;74.84;93050.13;5100052;28;20449;-82
2022/08/07 07:03:39;;;;;;;7.13;4.90;;;;;;;25.08;72.35;93034.59;5095062;28;20458;-80
2022/08/07 07:06:07;;;;;;;6.40;4.70;;;;;;;25.62;70.08;93061.78;5091017;28;20040;-79
2022/08/07 07:08:34;;;;;;;9.80;4.97;;;;;;;25.43;69.69;93048.88;5091015;28;20438;-80
2022/08/07 07:11:03;;;;;;;6.85;5.28;;;;;;;25.24;68.67;93062.28;5090910;28;20047;-78
2022/08/07 07:13:34;;;;;;;6.90;5.10;;;;;;;25.73;67.21;93049.09;5090788;28;20561;-79
2022/08/07 07:16:06;;;;;;;6.82;4.57;;;;;;;26.23;65.63;93063.66;5090796;28;20090;-79
2022/08/07 07:18:41;;;;;;;8.50;5.18;;;;;;;26.63;64.25;93067.13;5090930;28;20166;-79
2022/08/07 07:21:15;;;;;;;6.38;5.25;;;;;;;26.39;63.45;93071.06;5090957;28;20044;-80
2022/08/07 07:23:42;;;;;;;7.07;5.18;;;;;;;25.84;65.30;93074.03;5090831;28;20044;-80
2022/08/07 07:26:13;;;;;;;7.05;5.10;;;;;;;26.00;63.23;93071.69;5100611;28;20048;-81
2022/08/07 07:28:45;;;;;;;7.43;5.40;;;;;;;26.05;65.29;93054.97;5089565;28;20036;-81
2022/08/07 07:31:18;;;;;;;7.40;5.40;;;;;;;26.26;64.18;93067.53;5088876;28;21657;-79
2022/08/07 07:33:48;;;;;;;7.10;5.40;;;;;;;26.12;63.84;93072.94;5090149;28;20060;-81
2022/08/07 07:36:15;;;;;;;6.60;4.50;;;;;;;26.08;62.98;93078.03;5089875;28;20592;-79
2022/08/07 07:38:43;;;;;;;7.72;5.70;;;;;;;26.04;63.58;93068.44;5089618;28;20093;-81
2022/08/07 07:41:12;;;;;;;6.97;5.57;;;;;;;25.59;65.81;93060.53;5089144;28;20116;-83
2022/08/07 07:43:43;;;;;;;6.63;4.88;;;;;;;26.14;63.26;93076.78;5095495;28;20042;-81
2022/08/07 07:46:10;;;;;;;7.47;5.47;;;;;;;25.89;63.18;93079.09;5091997;28;20093;-82
2022/08/07 07:48:39;;;;;;;7.78;5.35;;;;;;;25.98;62.80;93079.13;5090322;28;20080;-82
2022/08/07 07:51:08;;;;;;;6.47;4.93;;;;;;;25.96;61.31;93068.13;5089856;28;20445;-84
2022/08/07 07:53:38;;;;;;;6.65;5.07;;;;;;;25.71;60.94;93073.09;5090174;28;20052;-83
2022/08/07 07:56:07;;;;;;;7.40;5.35;;;;;;;26.12;59.94;93063.19;5090010;28;20465;-82
2022/08/07 07:58:36;;;;;;;6.93;5.32;;;;;;;26.04;60.68;93082.38;5090086;28;20048;-81
2022/08/07 08:01:04;;;;;;;8.95;4.70;;;;;;;26.49;60.49;93076.00;5089618;28;20052;-81
2022/08/07 08:03:33;;;;;;;6.88;5.22;;;;;;;25.88;60.21;92982.84;5089474;28;20557;-82
2022/08/07 08:06:03;;;;;;;6.88;5.32;;;;;;;26.20;59.19;93011.59;5089795;28;20101;-82
2022/08/07 08:08:32;;;;;;;7.60;5.63;;;;;;;26.50;58.89;93082.81;5089747;28;20044;-83
2022/08/07 08:11:00;;;;;;;7.45;5.22;;;;;;;26.75;59.98;93085.69;5089747;28;20059;-82
2022/08/07 08:13:29;;;;;;;9.52;6.05;;;;;;;26.31;60.68;93087.63;5091221;28;20127;-85
2022/08/07 08:16:00;;;;;;;6.80;4.72;;;;;;;26.97;59.37;93080.53;5089617;28;20144;-83
2022/08/07 08:18:28;;;;;;;6.65;5.15;;;;;;;27.15;57.16;93086.50;5089570;28;20427;-82
2022/08/07 08:20:56;;;;;;;7.78;5.25;;;;;;;27.34;54.76;93083.47;5089612;28;20047;-82
2022/08/07 08:29:03;;;;;;;7.13;5.20;;;;;;;27.29;54.68;93089.69;5089617;28;20090;-87
2022/08/07 08:31:34;;;;;;;9.77;6.00;;;;;;;27.48;53.31;93088.50;5089239;28;20507;-82
2022/08/07 08:34:07;;;;;;;8.52;5.53;;;;;;;27.25;55.31;93078.22;5088750;28;20043;-82
2022/08/07 08:37:00;;;;;;;10.38;6.47;;;;;;;27.05;54.32;93085.00;5088365;28;20051;-83
2022/08/07 08:39:28;;;;;;;11.73;7.93;;;;;;;27.28;54.37;93085.53;5085568;28;20048;-82
2022/08/07 08:42:04;;;;;;;9.95;7.55;;;;;;;27.54;54.25;93094.38;5088698;28;20051;-82
2022/08/07 08:44:41;;;;;;;10.93;8.43;;;;;;;27.24;54.09;93100.41;5092378;28;20053;-83
2022/08/07 08:47:20;;;;;;;10.05;7.75;;;;;;;27.31;53.12;93097.28;5088632;28;20040;-81
2022/08/07 08:49:59;;;;;;;11.55;8.75;;;;;;;26.67;56.63;93065.41;5088811;28;20036;-82
2022/08/07 08:52:31;;;;;;;10.55;7.82;;;;;;;26.80;56.27;93085.50;5091058;28;20051;-84
2022/08/07 08:55:23;;;;;;;9.70;7.72;;;;;;;26.47;57.44;93099.22;5111755;28;20043;-83
2022/08/07 08:58:01;;;;;;;12.07;7.72;;;;;;;26.24;58.42;93090.75;5112840;28;20047;-82
2022/08/07 09:00:32;;;;;;;9.43;7.25;;;;;;;26.24;58.75;93073.09;5102436;28;20048;-81
2022/08/07 09:03:02;;;;;;;9.32;6.65;;;;;;;26.41;58.86;93090.72;5092916;28;20040;-82
2022/08/07 09:05:37;;;;;;;11.27;7.75;;;;;;;26.50;58.43;93093.34;5093491;28;20389;-83
2022/08/07 09:08:19;;;;;;;8.50;6.23;;;;;;;25.84;59.41;93081.91;5093426;28;20082;-83
2022/08/07 09:10:51;;;;;;;9.10;7.15;;;;;;;26.38;58.84;93083.44;5092953;28;20517;-81
2022/08/07 09:13:32;;;;;;;7.32;5.70;;;;;;;26.85;56.86;93092.50;5106925;28;20130;-82
2022/08/07 09:16:05;;;;;;;7.90;6.35;;;;;;;26.79;57.58;93086.63;5093127;28;20044;-83
2022/08/07 09:19:01;;;;;;;6.80;5.60;;;;;;;27.51;56.28;93092.38;5092522;28;20052;-81
2022/08/07 09:21:35;;;;;;;7.82;6.50;;;;;;;27.65;53.48;93052.56;5093123;28;20056;-81
2022/08/07 09:24:13;;;;;;;9.18;6.05;;;;;;;28.01;54.39;93090.81;5093077;28;20056;-81
2022/08/07 09:26:46;;;;;;;6.88;5.57;;;;;;;28.09;51.85;93055.66;5095399;28;20557;-83
2022/08/07 09:29:24;;;;;;;8.45;5.72;;;;;;;28.13;52.93;93093.53;5092804;28;20040;-84
2022/08/07 09:31:58;;;;;;;8.45;5.88;;;;;;;28.47;53.25;93079.59;5092817;28;20044;-86
2022/08/07 09:34:32;;;;;;;7.28;5.60;;;;;;;28.84;51.88;93087.59;5092302;28;20488;-81
2022/08/07 09:37:03;;;;;;;7.57;5.05;;;;;;;29.15;48.79;93081.03;5092503;28;20097;-81
2022/08/07 09:39:45;;;;;;;7.03;5.03;;;;;;;29.40;49.27;93081.03;5092506;28;20504;-81
2022/08/07 09:42:34;;;;;;;7.30;4.93;;;;;;;29.33;47.87;93086.09;5094201;28;20412;-81
2022/08/07 09:45:14;;;;;;;9.15;5.55;;;;;;;28.04;52.12;93094.69;5109589;28;20044;-81
2022/08/07 09:47:54;;;;;;;6.82;5.40;;;;;;;27.96;54.06;93088.38;5092433;28;20051;-81
2022/08/07 09:50:30;;;;;;;7.05;5.22;;;;;;;27.95;52.37;93058.56;5092716;28;20079;-81
2022/08/07 09:53:00;;;;;;;6.07;4.47;;;;;;;28.28;53.24;93065.00;5092164;28;20044;-80
2022/08/07 09:55:38;;;;;;;8.95;5.85;;;;;;;28.03;54.41;93032.44;5092031;28;20496;-81
2022/08/07 09:58:52;;;;;;;9.50;6.53;;;;;;;27.33;56.23;93061.59;5092069;28;20083;-82
2022/08/07 10:01:37;;;;;;;7.90;6.63;;;;;;;27.55;57.65;93051.84;5091776;28;20048;-81
2022/08/07 10:04:43;;;;;;;7.97;6.05;;;;;;;28.26;53.65;93065.31;5101727;28;20051;-85
2022/08/07 10:07:41;;;;;;;7.05;5.35;;;;;;;27.86;51.17;93053.34;5098081;28;20044;-82
2022/08/07 10:10:31;;;;;;;7.47;5.43;;;;;;;28.32;50.48;93051.91;5108631;28;20040;-83
2022/08/07 10:13:24;;;;;;;7.78;4.72;;;;;;;28.08;50.43;93054.09;5094495;28;20100;-84
2022/08/07 10:16:05;;;;;;;8.23;4.95;;;;;;;28.32;49.68;93051.91;5093541;28;20044;-81
2022/08/07 10:19:16;;;;;;;6.75;5.10;;;;;;;28.58;49.26;93050.88;5101465;28;20062;-83
2022/08/07 10:22:05;;;;;;;5.72;4.10;;;;;;;28.93;47.95;93053.91;5101243;28;20062;-81
2022/08/07 10:24:53;;;;;;;6.57;5.47;;;;;;;28.79;48.36;93037.59;5100873;28;20047;-82
2022/08/07 10:27:55;;;;;;;8.20;4.22;;;;;;;28.46;49.60;93054.25;5101362;28;20438;-82
2022/08/07 10:30:33;;;;;;;6.03;4.65;;;;;;;27.81;51.20;93021.88;5078581;28;20044;-82
2022/08/07 10:33:32;;;;;;;7.50;4.95;;;;;;;28.00;50.98;93049.69;5096022;28;20036;-84
2022/08/07 10:36:20;;;;;;;6.10;4.68;;;;;;;28.26;50.58;93072.47;5096414;28;20135;-82
2022/08/07 10:38:57;;;;;;;5.85;4.32;;;;;;;27.78;51.30;93054.22;5092856;28;20108;-84
2022/08/07 10:41:31;;;;;;;7.93;5.00;;;;;;;27.60;50.35;93058.81;5101472;28;20128;-87
2022/08/07 10:44:09;;;;;;;6.85;4.88;;;;;;;27.63;51.42;93058.16;5111510;28;20093;-82
2022/08/07 10:46:42;;;;;;;5.78;4.28;;;;;;;27.92;50.23;93022.28;5100043;28;20105;-83
2022/08/07 10:49:18;;;;;;;5.15;3.78;;;;;;;28.29;49.14;93040.13;5091313;28;20044;-84
2022/08/07 10:51:55;;;;;;;6.10;4.13;;;;;;;28.63;48.78;93046.16;5091116;28;20101;-82
2022/08/07 10:54:28;;;;;;;6.00;4.13;;;;;;;27.63;51.30;93049.50;5091031;28;20048;-81
2022/08/07 10:57:09;;;;;;;7.93;4.88;;;;;;;27.53;52.35;93032.91;5091819;28;20047;-83
2022/08/07 10:59:56;;;;;;;5.68;4.47;;;;;;;27.50;52.00;93035.44;5093315;28;20054;-82
2022/08/07 11:02:29;;;;;;;6.95;4.63;;;;;;;27.30;53.74;93043.78;5088270;28;20500;-81
2022/08/07 11:05:16;;;;;;;6.75;4.60;;;;;;;27.26;53.76;93027.03;5091165;28;20048;-81
2022/08/07 11:07:55;;;;;;;6.85;4.45;;;;;;;27.80;51.96;93036.16;5088182;28;20044;-82
2022/08/07 11:10:30;;;;;;;6.55;4.70;;;;;;;27.64;51.88;93043.91;5090558;28;20557;-81
2022/08/07 11:13:03;;;;;;;8.00;5.20;;;;;;;27.57;50.13;93048.88;5090608;28;20056;-84
2022/08/07 11:15:35;;;;;;;6.28;4.47;;;;;;;27.14;50.47;93040.13;5089298;28;20044;-83
2022/08/07 11:18:09;;;;;;;6.63;4.85;;;;;;;26.93;51.37;93039.00;5090877;28;20564;-84
2022/08/07 11:20:46;;;;;;;6.43;4.57;;;;;;;26.80;52.06;93024.91;5090770;28;20125;-83
2022/08/07 11:23:22;;;;;;;6.85;4.88;;;;;;;26.54;53.69;93044.25;5090859;28;21032;-84
2022/08/07 11:25:58;;;;;;;5.65;4.47;;;;;;;26.65;53.62;93033.34;5099671;28;20086;-80
2022/08/07 11:28:28;;;;;;;5.88;4.60;;;;;;;26.75;53.84;93032.22;5090158;28;20044;-83
2022/08/07 11:31:02;;;;;;;8.95;5.00;;;;;;;26.94;53.16;93022.09;5091642;28;20093;-83
2022/08/07 11:33:41;;;;;;;6.03;4.97;;;;;;;27.14;53.36;93034.88;5090236;28;20557;-82
2022/08/07 11:36:18;;;;;;;7.05;4.53;;;;;;;26.97;52.49;93031.22;5100410;28;20142;-82
2022/08/07 11:38:59;;;;;;;6.45;4.53;;;;;;;26.69;53.17;93023.72;5090500;28;20048;-81
2022/08/07 11:41:32;;;;;;;6.28;4.70;;;;;;;26.97;53.55;93028.59;5090250;28;20047;-83
2022/08/07 11:44:14;;;;;;;5.20;4.15;;;;;;;26.70;54.30;93011.34;5099199;28;20048;-83
2022/08/07 11:46:49;;;;;;;7.50;5.63;;;;;;;26.88;55.47;93015.44;5092687;28;20135;-82
2022/08/07 11:49:51;;;;;;;6.50;4.90;;;;;;;26.87;54.34;93026.28;5090461;28;20122;-82
2022/08/07 11:52:35;;;;;;;8.73;5.15;;;;;;;26.64;55.31;93010.72;5088200;28;20043;-83
2022/08/07 11:55:15;;;;;;;7.38;5.22;;;;;;;26.81;55.71;93004.63;5089846;28;20525;-79
2022/08/07 11:57:44;;;;;;;7.13;5.05;;;;;;;26.62;55.59;92992.59;5090413;28;20097;-80
2022/08/07 12:00:14;;;;;;;5.80;4.68;;;;;;;27.05;55.49;93021.72;5089763;28;20553;-83